sensor_id;sensor_type;location;lat;lon;timestamp;temperature;humidity
2030;DHT22;1020;48.854;8.830;2023-10-08T00:01:43;13.00;1.00
2030;DHT22;1020;48.854;8.830;2023-10-08T00:04:10;13.00;1.00
2030;DHT22;1020;48.854;8.830;2023-10-08T00:06:37;13.00;1.00
2030;DHT22;1020;48.854;8.830;2023-10-08T00:09:04;13.00;1.00
2030;DHT22;1020;48.854;8.830;2023-10-08T00:11:37;13.00;1.00
2030;DHT22;1020;48.854;8.830;2023-10-08T00:14:05;13.10;99.90
2030;DHT22;1020;48.854;8.830;2023-10-08T00:16:36;13.20;99.90
2030;DHT22;1020;48.854;8.830;2023-10-08T00:19:06;13.40;99.90
2030;DHT22;1020;48.854;8.830;2023-10-08T00:21:38;13.50;99.90
2030;DHT22;1020;48.854;8.830;2023-10-08T00:24:06;13.50;99.90
2030;DHT22;1020;48.854;8.830;2023-10-08T00:26:34;13.50;99.90
2030;DHT22;1020;48.854;8.830;2023-10-08T00:29:06;13.50;99.90
2030;DHT22;1020;48.854;8.830;2023-10-08T00:31:42;13.50;99.90
2030;DHT22;1020;48.854;8.830;2023-10-08T00:34:11;13.50;99.90
2030;DHT22;1020;48.854;8.830;2023-10-08T00:36:39;13.50;99.90
2030;DHT22;1020;48.854;8.830;2023-10-08T00:39:07;13.50;99.90
2030;DHT22;1020;48.854;8.830;2023-10-08T00:41:39;13.50;99.90
2030;DHT22;1020;48.854;8.830;2023-10-08T00:44:08;13.50;99.90
2030;DHT22;1020;48.854;8.830;2023-10-08T00:46:38;13.50;99.90
2030;DHT22;1020;48.854;8.830;2023-10-08T00:49:09;13.50;99.90
2030;DHT22;1020;48.854;8.830;2023-10-08T00:51:50;13.60;99.90
2030;DHT22;1020;48.854;8.830;2023-10-08T00:54:44;13.60;99.90
2030;DHT22;1020;48.854;8.830;2023-10-08T00:57:22;13.70;99.90
2030;DHT22;1020;48.854;8.830;2023-10-08T00:59:49;13.80;99.90
2030;DHT22;1020;48.854;8.830;2023-10-08T01:02:19;13.80;99.90
2030;DHT22;1020;48.854;8.830;2023-10-08T01:04:51;13.90;99.90
2030;DHT22;1020;48.854;8.830;2023-10-08T01:07:20;13.90;99.90
2030;DHT22;1020;48.854;8.830;2023-10-08T01:09:49;14.00;99.90
2030;DHT22;1020;48.854;8.830;2023-10-08T01:12:18;14.00;99.90
2030;DHT22;1020;48.854;8.830;2023-10-08T01:14:47;14.00;94.30
2030;DHT22;1020;48.854;8.830;2023-10-08T01:17:16;14.10;80.60
2030;DHT22;1020;48.854;8.830;2023-10-08T01:19:45;14.20;62.80
2030;DHT22;1020;48.854;8.830;2023-10-08T01:22:26;14.20;56.40
2030;DHT22;1020;48.854;8.830;2023-10-08T01:24:55;14.20;55.70
2030;DHT22;1020;48.854;8.830;2023-10-08T01:27:23;14.20;52.20
2030;DHT22;1020;48.854;8.830;2023-10-08T01:29:51;14.20;54.20
2030;DHT22;1020;48.854;8.830;2023-10-08T01:32:18;14.10;60.50
2030;DHT22;1020;48.854;8.830;2023-10-08T01:34:46;14.10;58.50
2030;DHT22;1020;48.854;8.830;2023-10-08T01:37:14;14.20;64.80
2030;DHT22;1020;48.854;8.830;2023-10-08T01:39:44;14.10;78.10
2030;DHT22;1020;48.854;8.830;2023-10-08T01:42:11;14.20;65.20
2030;DHT22;1020;48.854;8.830;2023-10-08T01:44:44;14.10;83.10
2030;DHT22;1020;48.854;8.830;2023-10-08T01:47:12;14.10;82.10
2030;DHT22;1020;48.854;8.830;2023-10-08T01:49:40;14.10;85.90
2030;DHT22;1020;48.854;8.830;2023-10-08T01:52:08;14.10;65.80
2030;DHT22;1020;48.854;8.830;2023-10-08T01:54:39;14.20;71.50
2030;DHT22;1020;48.854;8.830;2023-10-08T01:57:08;14.20;71.30
2030;DHT22;1020;48.854;8.830;2023-10-08T01:59:35;14.20;67.10
2030;DHT22;1020;48.854;8.830;2023-10-08T02:02:03;14.20;71.40
2030;DHT22;1020;48.854;8.830;2023-10-08T02:04:31;14.30;70.10
2030;DHT22;1020;48.854;8.830;2023-10-08T02:07:01;14.20;70.10
2030;DHT22;1020;48.854;8.830;2023-10-08T02:09:29;12.80;67.70
2030;DHT22;1020;48.854;8.830;2023-10-08T02:11:56;14.30;72.60
2030;DHT22;1020;48.854;8.830;2023-10-08T02:14:25;14.30;65.50
2030;DHT22;1020;48.854;8.830;2023-10-08T02:16:56;14.40;65.20
2030;DHT22;1020;48.854;8.830;2023-10-08T02:19:22;14.30;68.60
2030;DHT22;1020;48.854;8.830;2023-10-08T02:21:53;14.30;82.30
2030;DHT22;1020;48.854;8.830;2023-10-08T02:24:20;14.30;79.90
2030;DHT22;1020;48.854;8.830;2023-10-08T02:26:50;14.30;87.70
2030;DHT22;1020;48.854;8.830;2023-10-08T02:29:17;14.30;80.10
2030;DHT22;1020;48.854;8.830;2023-10-08T02:31:45;14.30;95.20
2030;DHT22;1020;48.854;8.830;2023-10-08T02:34:13;14.40;99.90
2030;DHT22;1020;48.854;8.830;2023-10-08T02:36:41;14.40;99.90
2030;DHT22;1020;48.854;8.830;2023-10-08T02:39:08;14.30;99.90
2030;DHT22;1020;48.854;8.830;2023-10-08T02:41:42;14.30;99.90
2030;DHT22;1020;48.854;8.830;2023-10-08T02:44:11;14.30;99.90
2030;DHT22;1020;48.854;8.830;2023-10-08T02:46:39;14.40;99.90
2030;DHT22;1020;48.854;8.830;2023-10-08T02:49:10;14.40;99.90
2030;DHT22;1020;48.854;8.830;2023-10-08T02:51:43;14.40;99.90
2030;DHT22;1020;48.854;8.830;2023-10-08T02:54:10;14.30;99.90
2030;DHT22;1020;48.854;8.830;2023-10-08T02:56:44;14.30;99.90
2030;DHT22;1020;48.854;8.830;2023-10-08T02:59:11;14.20;99.90
2030;DHT22;1020;48.854;8.830;2023-10-08T03:01:39;14.20;99.90
2030;DHT22;1020;48.854;8.830;2023-10-08T03:04:06;14.30;99.90
2030;DHT22;1020;48.854;8.830;2023-10-08T03:06:45;14.40;99.90
2030;DHT22;1020;48.854;8.830;2023-10-08T03:09:16;14.50;99.90
2030;DHT22;1020;48.854;8.830;2023-10-08T03:11:46;14.50;99.90
2030;DHT22;1020;48.854;8.830;2023-10-08T03:14:14;14.50;99.90
2030;DHT22;1020;48.854;8.830;2023-10-08T03:16:48;14.60;99.90
2030;DHT22;1020;48.854;8.830;2023-10-08T03:19:15;14.60;99.90
2030;DHT22;1020;48.854;8.830;2023-10-08T03:21:46;14.60;99.90
2030;DHT22;1020;48.854;8.830;2023-10-08T03:24:16;14.70;99.90
2030;DHT22;1020;48.854;8.830;2023-10-08T03:27:05;14.80;99.90
2030;DHT22;1020;48.854;8.830;2023-10-08T03:29:41;14.80;99.90
2030;DHT22;1020;48.854;8.830;2023-10-08T03:32:08;14.80;99.90
2030;DHT22;1020;48.854;8.830;2023-10-08T03:34:44;14.80;99.90
2030;DHT22;1020;48.854;8.830;2023-10-08T03:37:13;14.80;99.90
2030;DHT22;1020;48.854;8.830;2023-10-08T03:39:46;14.80;99.90
2030;DHT22;1020;48.854;8.830;2023-10-08T03:42:26;14.70;99.90
2030;DHT22;1020;48.854;8.830;2023-10-08T03:44:59;14.70;99.90
2030;DHT22;1020;48.854;8.830;2023-10-08T03:47:36;14.60;99.90
2030;DHT22;1020;48.854;8.830;2023-10-08T03:50:04;14.50;99.90
2030;DHT22;1020;48.854;8.830;2023-10-08T03:52:36;14.60;99.90
2030;DHT22;1020;48.854;8.830;2023-10-08T03:55:05;14.70;99.90
2030;DHT22;1020;48.854;8.830;2023-10-08T03:57:52;14.70;99.90
2030;DHT22;1020;48.854;8.830;2023-10-08T04:00:23;15.00;99.90
2030;DHT22;1020;48.854;8.830;2023-10-08T04:02:57;15.20;99.90
2030;DHT22;1020;48.854;8.830;2023-10-08T04:05:26;15.40;99.90
2030;DHT22;1020;48.854;8.830;2023-10-08T04:08:07;15.60;96.60
2030;DHT22;1020;48.854;8.830;2023-10-08T04:10:50;15.80;65.00
2030;DHT22;1020;48.854;8.830;2023-10-08T04:13:31;15.90;33.50
2030;DHT22;1020;48.854;8.830;2023-10-08T04:15:57;16.10;23.00
2030;DHT22;1020;48.854;8.830;2023-10-08T04:18:24;16.30;32.10
2030;DHT22;1020;48.854;8.830;2023-10-08T04:20:53;16.50;99.90
2030;DHT22;1020;48.854;8.830;2023-10-08T04:23:32;16.60;99.90
2030;DHT22;1020;48.854;8.830;2023-10-08T04:25:59;16.70;99.90
2030;DHT22;1020;48.854;8.830;2023-10-08T04:28:26;16.70;99.90
2030;DHT22;1020;48.854;8.830;2023-10-08T04:31:00;16.80;99.90
2030;DHT22;1020;48.854;8.830;2023-10-08T04:33:40;16.90;99.90
2030;DHT22;1020;48.854;8.830;2023-10-08T04:36:07;16.90;99.90
2030;DHT22;1020;48.854;8.830;2023-10-08T04:38:35;17.00;99.90
2030;DHT22;1020;48.854;8.830;2023-10-08T04:41:06;17.20;99.90
2030;DHT22;1020;48.854;8.830;2023-10-08T04:43:35;17.20;99.90
2030;DHT22;1020;48.854;8.830;2023-10-08T04:46:04;17.30;99.90
2030;DHT22;1020;48.854;8.830;2023-10-08T04:48:44;17.30;99.90
2030;DHT22;1020;48.854;8.830;2023-10-08T04:51:11;17.40;99.90
2030;DHT22;1020;48.854;8.830;2023-10-08T04:53:40;17.40;99.90
2030;DHT22;1020;48.854;8.830;2023-10-08T04:56:10;17.40;99.90
2030;DHT22;1020;48.854;8.830;2023-10-08T04:58:42;17.30;99.90
2030;DHT22;1020;48.854;8.830;2023-10-08T05:01:12;17.20;99.90
2030;DHT22;1020;48.854;8.830;2023-10-08T05:03:47;17.10;99.90
2030;DHT22;1020;48.854;8.830;2023-10-08T05:06:49;17.00;99.90
2030;DHT22;1020;48.854;8.830;2023-10-08T05:09:44;16.90;99.90
2030;DHT22;1020;48.854;8.830;2023-10-08T05:12:18;16.90;99.90
2030;DHT22;1020;48.854;8.830;2023-10-08T05:15:04;16.80;99.90
2030;DHT22;1020;48.854;8.830;2023-10-08T05:17:58;16.80;99.90
2030;DHT22;1020;48.854;8.830;2023-10-08T05:20:39;16.80;99.90
2030;DHT22;1020;48.854;8.830;2023-10-08T05:23:25;16.90;99.90
2030;DHT22;1020;48.854;8.830;2023-10-08T05:26:38;16.90;99.90
2030;DHT22;1020;48.854;8.830;2023-10-08T05:29:08;16.80;99.90
2030;DHT22;1020;48.854;8.830;2023-10-08T05:31:49;16.80;99.90
2030;DHT22;1020;48.854;8.830;2023-10-08T05:34:36;16.80;99.90
2030;DHT22;1020;48.854;8.830;2023-10-08T05:37:09;16.70;99.90
2030;DHT22;1020;48.854;8.830;2023-10-08T05:39:58;16.70;99.90
2030;DHT22;1020;48.854;8.830;2023-10-08T05:42:38;16.70;99.90
2030;DHT22;1020;48.854;8.830;2023-10-08T05:45:13;16.80;99.90
2030;DHT22;1020;48.854;8.830;2023-10-08T05:47:55;16.80;99.90
2030;DHT22;1020;48.854;8.830;2023-10-08T05:50:39;16.80;99.90
2030;DHT22;1020;48.854;8.830;2023-10-08T05:53:08;16.80;99.90
2030;DHT22;1020;48.854;8.830;2023-10-08T05:56:03;16.90;99.90
2030;DHT22;1020;48.854;8.830;2023-10-08T05:58:43;16.90;99.90
2030;DHT22;1020;48.854;8.830;2023-10-08T06:01:26;16.90;99.90
2030;DHT22;1020;48.854;8.830;2023-10-08T06:04:05;17.00;99.90
2030;DHT22;1020;48.854;8.830;2023-10-08T06:06:46;17.10;99.90
2030;DHT22;1020;48.854;8.830;2023-10-08T06:09:23;17.30;99.90
2030;DHT22;1020;48.854;8.830;2023-10-08T06:12:00;17.30;99.90
2030;DHT22;1020;48.854;8.830;2023-10-08T06:14:37;17.40;99.90
2030;DHT22;1020;48.854;8.830;2023-10-08T06:17:33;17.40;99.90
2030;DHT22;1020;48.854;8.830;2023-10-08T06:20:22;17.50;99.90
2030;DHT22;1020;48.854;8.830;2023-10-08T06:22:52;17.60;99.90
2030;DHT22;1020;48.854;8.830;2023-10-08T06:25:26;17.70;99.90
2030;DHT22;1020;48.854;8.830;2023-10-08T06:27:53;17.80;99.40
2030;DHT22;1020;48.854;8.830;2023-10-08T06:30:25;17.90;99.10
2030;DHT22;1020;48.854;8.830;2023-10-08T06:32:55;18.00;98.90
2030;DHT22;1020;48.854;8.830;2023-10-08T06:35:22;18.20;98.50
2030;DHT22;1020;48.854;8.830;2023-10-08T06:37:53;18.30;98.30
2030;DHT22;1020;48.854;8.830;2023-10-08T06:40:21;18.40;99.00
2030;DHT22;1020;48.854;8.830;2023-10-08T06:43:17;18.50;98.60
2030;DHT22;1020;48.854;8.830;2023-10-08T06:45:49;18.50;97.10
2030;DHT22;1020;48.854;8.830;2023-10-08T06:48:24;18.70;97.00
2030;DHT22;1020;48.854;8.830;2023-10-08T06:50:55;18.90;99.90
2030;DHT22;1020;48.854;8.830;2023-10-08T06:53:22;18.90;99.90
2030;DHT22;1020;48.854;8.830;2023-10-08T06:55:49;18.80;99.90
2030;DHT22;1020;48.854;8.830;2023-10-08T06:58:22;18.80;99.90
2030;DHT22;1020;48.854;8.830;2023-10-08T07:00:50;18.60;99.90
2030;DHT22;1020;48.854;8.830;2023-10-08T07:03:17;20.10;99.90
2030;DHT22;1020;48.854;8.830;2023-10-08T07:05:47;18.30;99.90
2030;DHT22;1020;48.854;8.830;2023-10-08T07:08:24;18.30;99.90
2030;DHT22;1020;48.854;8.830;2023-10-08T07:10:53;18.20;99.90
2030;DHT22;1020;48.854;8.830;2023-10-08T07:13:22;18.30;99.90
2030;DHT22;1020;48.854;8.830;2023-10-08T07:15:52;18.70;99.90
2030;DHT22;1020;48.854;8.830;2023-10-08T07:18:19;19.20;99.90
2030;DHT22;1020;48.854;8.830;2023-10-08T07:20:51;19.70;99.90
2030;DHT22;1020;48.854;8.830;2023-10-08T07:23:20;20.20;99.90
2030;DHT22;1020;48.854;8.830;2023-10-08T07:25:53;20.50;99.90
2030;DHT22;1020;48.854;8.830;2023-10-08T07:28:24;20.70;99.90
2030;DHT22;1020;48.854;8.830;2023-10-08T07:30:53;20.90;99.90
2030;DHT22;1020;48.854;8.830;2023-10-08T07:33:20;21.00;99.90
2030;DHT22;1020;48.854;8.830;2023-10-08T07:35:51;21.30;99.90
2030;DHT22;1020;48.854;8.830;2023-10-08T07:38:25;21.00;99.90
2030;DHT22;1020;48.854;8.830;2023-10-08T07:40:52;20.70;99.90
2030;DHT22;1020;48.854;8.830;2023-10-08T07:43:20;20.50;99.90
2030;DHT22;1020;48.854;8.830;2023-10-08T07:45:48;20.70;99.90
2030;DHT22;1020;48.854;8.830;2023-10-08T07:48:16;20.70;99.90
2030;DHT22;1020;48.854;8.830;2023-10-08T07:50:44;20.80;99.90
2030;DHT22;1020;48.854;8.830;2023-10-08T07:53:12;20.70;99.90
2030;DHT22;1020;48.854;8.830;2023-10-08T07:55:45;20.30;99.90
2030;DHT22;1020;48.854;8.830;2023-10-08T07:58:13;20.40;99.90
2030;DHT22;1020;48.854;8.830;2023-10-08T08:00:42;20.20;99.90
2030;DHT22;1020;48.854;8.830;2023-10-08T08:03:19;19.90;99.90
2030;DHT22;1020;48.854;8.830;2023-10-08T08:05:46;20.40;99.90
2030;DHT22;1020;48.854;8.830;2023-10-08T08:08:14;21.30;99.90
2030;DHT22;1020;48.854;8.830;2023-10-08T08:10:44;22.10;99.90
2030;DHT22;1020;48.854;8.830;2023-10-08T08:13:11;22.90;99.90
2030;DHT22;1020;48.854;8.830;2023-10-08T08:15:39;23.50;99.90
2030;DHT22;1020;48.854;8.830;2023-10-08T08:18:09;23.50;99.90
2030;DHT22;1020;48.854;8.830;2023-10-08T08:20:48;24.40;99.90
2030;DHT22;1020;48.854;8.830;2023-10-08T08:23:15;24.70;99.90
2030;DHT22;1020;48.854;8.830;2023-10-08T08:25:43;25.10;99.90
2030;DHT22;1020;48.854;8.830;2023-10-08T08:28:21;25.00;99.90
2030;DHT22;1020;48.854;8.830;2023-10-08T08:30:50;24.50;99.90
2030;DHT22;1020;48.854;8.830;2023-10-08T08:33:18;23.90;99.90
2030;DHT22;1020;48.854;8.830;2023-10-08T08:35:58;23.70;99.90
2030;DHT22;1020;48.854;8.830;2023-10-08T08:38:27;23.80;99.90
2030;DHT22;1020;48.854;8.830;2023-10-08T08:41:02;24.10;99.90
2030;DHT22;1020;48.854;8.830;2023-10-08T08:43:33;24.80;99.90
2030;DHT22;1020;48.854;8.830;2023-10-08T08:46:02;25.60;99.90
2030;DHT22;1020;48.854;8.830;2023-10-08T08:48:33;26.10;99.90
2030;DHT22;1020;48.854;8.830;2023-10-08T08:51:01;26.00;99.90
2030;DHT22;1020;48.854;8.830;2023-10-08T08:53:28;25.80;99.90
2030;DHT22;1020;48.854;8.830;2023-10-08T08:55:55;25.60;99.90
2030;DHT22;1020;48.854;8.830;2023-10-08T08:58:21;24.30;99.90
2030;DHT22;1020;48.854;8.830;2023-10-08T09:00:52;23.50;99.90
2030;DHT22;1020;48.854;8.830;2023-10-08T09:03:19;23.30;99.90
2030;DHT22;1020;48.854;8.830;2023-10-08T09:05:46;23.10;99.90
2030;DHT22;1020;48.854;8.830;2023-10-08T09:08:18;23.30;99.90
2030;DHT22;1020;48.854;8.830;2023-10-08T09:10:45;23.70;99.90
2030;DHT22;1020;48.854;8.830;2023-10-08T09:13:19;24.30;99.90
2030;DHT22;1020;48.854;8.830;2023-10-08T09:15:48;24.40;99.90
2030;DHT22;1020;48.854;8.830;2023-10-08T09:18:15;24.20;99.90
2030;DHT22;1020;48.854;8.830;2023-10-08T09:20:41;24.10;99.90
2030;DHT22;1020;48.854;8.830;2023-10-08T09:23:10;24.50;99.90
2030;DHT22;1020;48.854;8.830;2023-10-08T09:25:39;24.60;99.90
2030;DHT22;1020;48.854;8.830;2023-10-08T09:28:06;24.30;99.90
2030;DHT22;1020;48.854;8.830;2023-10-08T09:30:34;24.50;99.90
2030;DHT22;1020;48.854;8.830;2023-10-08T09:33:04;24.30;99.90
2030;DHT22;1020;48.854;8.830;2023-10-08T09:35:32;23.80;99.90
2030;DHT22;1020;48.854;8.830;2023-10-08T09:37:59;23.80;99.90
2030;DHT22;1020;48.854;8.830;2023-10-08T09:40:27;23.60;99.90
2030;DHT22;1020;48.854;8.830;2023-10-08T09:42:55;26.10;99.90
2030;DHT22;1020;48.854;8.830;2023-10-08T09:45:22;23.70;99.90
2030;DHT22;1020;48.854;8.830;2023-10-08T09:47:52;23.60;99.90
2030;DHT22;1020;48.854;8.830;2023-10-08T09:50:22;24.10;99.90
2030;DHT22;1020;48.854;8.830;2023-10-08T09:53:02;24.30;99.90
2030;DHT22;1020;48.854;8.830;2023-10-08T09:55:31;24.10;99.90
2030;DHT22;1020;48.854;8.830;2023-10-08T09:58:00;24.10;99.90
2030;DHT22;1020;48.854;8.830;2023-10-08T10:00:28;24.40;99.90
2030;DHT22;1020;48.854;8.830;2023-10-08T10:02:58;24.50;99.90
2030;DHT22;1020;48.854;8.830;2023-10-08T10:05:29;24.40;99.90
2030;DHT22;1020;48.854;8.830;2023-10-08T10:07:57;24.70;99.90
2030;DHT22;1020;48.854;8.830;2023-10-08T10:10:27;25.40;99.90
2030;DHT22;1020;48.854;8.830;2023-10-08T10:12:57;26.10;99.90
2030;DHT22;1020;48.854;8.830;2023-10-08T10:15:27;26.70;99.90
2030;DHT22;1020;48.854;8.830;2023-10-08T10:17:59;26.50;99.90
2030;DHT22;1020;48.854;8.830;2023-10-08T10:20:25;26.80;99.90
2030;DHT22;1020;48.854;8.830;2023-10-08T10:22:53;27.10;99.90
2030;DHT22;1020;48.854;8.830;2023-10-08T10:25:34;27.60;99.90
2030;DHT22;1020;48.854;8.830;2023-10-08T10:28:21;27.40;99.90
2030;DHT22;1020;48.854;8.830;2023-10-08T10:30:50;27.60;99.90
2030;DHT22;1020;48.854;8.830;2023-10-08T10:33:18;27.30;99.90
2030;DHT22;1020;48.854;8.830;2023-10-08T10:35:50;27.60;99.90
2030;DHT22;1020;48.854;8.830;2023-10-08T10:38:19;27.80;99.90
2030;DHT22;1020;48.854;8.830;2023-10-08T10:40:48;28.00;99.90
2030;DHT22;1020;48.854;8.830;2023-10-08T10:43:23;27.80;99.90
2030;DHT22;1020;48.854;8.830;2023-10-08T10:45:59;28.20;99.90
2030;DHT22;1020;48.854;8.830;2023-10-08T10:48:45;28.70;99.90
2030;DHT22;1020;48.854;8.830;2023-10-08T10:51:22;28.70;99.90
2030;DHT22;1020;48.854;8.830;2023-10-08T10:53:48;28.00;99.90
2030;DHT22;1020;48.854;8.830;2023-10-08T10:56:23;27.30;99.90
2030;DHT22;1020;48.854;8.830;2023-10-08T10:58:58;27.40;99.90
2030;DHT22;1020;48.854;8.830;2023-10-08T11:01:27;28.30;99.90
2030;DHT22;1020;48.854;8.830;2023-10-08T11:03:56;29.30;99.90
2030;DHT22;1020;48.854;8.830;2023-10-08T11:06:24;29.80;99.90
2030;DHT22;1020;48.854;8.830;2023-10-08T11:08:52;29.50;99.90
2030;DHT22;1020;48.854;8.830;2023-10-08T11:11:25;29.60;99.90
2030;DHT22;1020;48.854;8.830;2023-10-08T11:13:56;29.30;99.90
2030;DHT22;1020;48.854;8.830;2023-10-08T11:16:27;29.10;99.90
2030;DHT22;1020;48.854;8.830;2023-10-08T11:18:57;28.90;99.90
2030;DHT22;1020;48.854;8.830;2023-10-08T11:21:27;28.30;99.90
2030;DHT22;1020;48.854;8.830;2023-10-08T11:23:59;28.00;99.90
2030;DHT22;1020;48.854;8.830;2023-10-08T11:26:36;28.10;99.90
2030;DHT22;1020;48.854;8.830;2023-10-08T11:29:05;27.60;99.90
2030;DHT22;1020;48.854;8.830;2023-10-08T11:31:41;27.80;99.90
2030;DHT22;1020;48.854;8.830;2023-10-08T11:34:10;28.10;99.90
2030;DHT22;1020;48.854;8.830;2023-10-08T11:36:38;28.00;99.90
2030;DHT22;1020;48.854;8.830;2023-10-08T11:39:18;28.70;99.90
2030;DHT22;1020;48.854;8.830;2023-10-08T11:41:58;28.80;99.90
2030;DHT22;1020;48.854;8.830;2023-10-08T11:44:29;28.50;99.90
2030;DHT22;1020;48.854;8.830;2023-10-08T11:46:57;28.40;99.90
2030;DHT22;1020;48.854;8.830;2023-10-08T11:49:30;28.50;99.90
2030;DHT22;1020;48.854;8.830;2023-10-08T11:52:02;28.90;99.90
2030;DHT22;1020;48.854;8.830;2023-10-08T11:54:29;28.60;99.90
2030;DHT22;1020;48.854;8.830;2023-10-08T11:56:59;28.80;99.90
2030;DHT22;1020;48.854;8.830;2023-10-08T11:59:27;29.40;99.90
2030;DHT22;1020;48.854;8.830;2023-10-08T12:01:56;29.40;99.90
2030;DHT22;1020;48.854;8.830;2023-10-08T12:04:23;28.70;99.90
2030;DHT22;1020;48.854;8.830;2023-10-08T12:06:50;29.00;99.90
2030;DHT22;1020;48.854;8.830;2023-10-08T12:09:18;27.20;99.90
2030;DHT22;1020;48.854;8.830;2023-10-08T12:11:47;28.30;99.90
2030;DHT22;1020;48.854;8.830;2023-10-08T12:14:14;29.30;99.90
2030;DHT22;1020;48.854;8.830;2023-10-08T12:16:41;29.30;99.90
2030;DHT22;1020;48.854;8.830;2023-10-08T12:19:12;29.00;99.90
2030;DHT22;1020;48.854;8.830;2023-10-08T12:21:42;28.90;99.90
2030;DHT22;1020;48.854;8.830;2023-10-08T12:24:12;29.00;99.90
2030;DHT22;1020;48.854;8.830;2023-10-08T12:26:40;29.00;99.90
2030;DHT22;1020;48.854;8.830;2023-10-08T12:29:11;29.30;99.90
2030;DHT22;1020;48.854;8.830;2023-10-08T12:31:39;29.40;99.90
2030;DHT22;1020;48.854;8.830;2023-10-08T12:34:06;29.60;99.90
2030;DHT22;1020;48.854;8.830;2023-10-08T12:36:38;28.20;99.90
2030;DHT22;1020;48.854;8.830;2023-10-08T12:39:05;29.90;99.90
2030;DHT22;1020;48.854;8.830;2023-10-08T12:41:37;30.50;99.90
2030;DHT22;1020;48.854;8.830;2023-10-08T12:44:04;30.50;99.90
2030;DHT22;1020;48.854;8.830;2023-10-08T12:46:33;30.20;99.90
2030;DHT22;1020;48.854;8.830;2023-10-08T12:49:00;30.70;99.90
2030;DHT22;1020;48.854;8.830;2023-10-08T12:51:29;31.20;99.90
2030;DHT22;1020;48.854;8.830;2023-10-08T12:54:00;31.00;99.90
2030;DHT22;1020;48.854;8.830;2023-10-08T12:56:32;31.30;99.90
2030;DHT22;1020;48.854;8.830;2023-10-08T12:59:01;31.50;99.90
2030;DHT22;1020;48.854;8.830;2023-10-08T13:01:30;31.20;99.90
2030;DHT22;1020;48.854;8.830;2023-10-08T13:03:57;31.60;99.90
2030;DHT22;1020;48.854;8.830;2023-10-08T13:06:27;31.90;99.90
2030;DHT22;1020;48.854;8.830;2023-10-08T13:08:55;32.00;99.90
2030;DHT22;1020;48.854;8.830;2023-10-08T13:11:24;31.50;99.90
2030;DHT22;1020;48.854;8.830;2023-10-08T13:13:52;31.20;99.90
2030;DHT22;1020;48.854;8.830;2023-10-08T13:16:22;30.90;99.90
2030;DHT22;1020;48.854;8.830;2023-10-08T13:18:49;30.70;99.90
2030;DHT22;1020;48.854;8.830;2023-10-08T13:21:17;31.10;99.90
2030;DHT22;1020;48.854;8.830;2023-10-08T13:23:44;30.80;99.90
2030;DHT22;1020;48.854;8.830;2023-10-08T13:26:12;31.40;99.90
2030;DHT22;1020;48.854;8.830;2023-10-08T13:28:47;31.50;99.90
2030;DHT22;1020;48.854;8.830;2023-10-08T13:31:13;31.20;99.90
2030;DHT22;1020;48.854;8.830;2023-10-08T13:33:43;31.10;99.90
2030;DHT22;1020;48.854;8.830;2023-10-08T13:36:14;31.30;99.90
2030;DHT22;1020;48.854;8.830;2023-10-08T13:38:42;31.20;99.90
2030;DHT22;1020;48.854;8.830;2023-10-08T13:41:09;31.10;99.90
2030;DHT22;1020;48.854;8.830;2023-10-08T13:43:42;31.80;99.90
2030;DHT22;1020;48.854;8.830;2023-10-08T13:46:13;32.00;99.90
2030;DHT22;1020;48.854;8.830;2023-10-08T13:48:42;32.10;99.90
2030;DHT22;1020;48.854;8.830;2023-10-08T13:51:12;31.60;99.90
2030;DHT22;1020;48.854;8.830;2023-10-08T13:53:40;31.20;99.90
2030;DHT22;1020;48.854;8.830;2023-10-08T13:56:10;31.10;99.90
2030;DHT22;1020;48.854;8.830;2023-10-08T13:58:38;30.20;99.90
2030;DHT22;1020;48.854;8.830;2023-10-08T14:01:12;30.80;99.90
2030;DHT22;1020;48.854;8.830;2023-10-08T14:03:46;30.80;99.90
2030;DHT22;1020;48.854;8.830;2023-10-08T14:06:14;30.70;99.90
2030;DHT22;1020;48.854;8.830;2023-10-08T14:08:42;30.90;99.90
2030;DHT22;1020;48.854;8.830;2023-10-08T14:11:17;30.80;99.90
2030;DHT22;1020;48.854;8.830;2023-10-08T14:13:44;31.00;99.90
2030;DHT22;1020;48.854;8.830;2023-10-08T14:16:14;30.80;99.90
2030;DHT22;1020;48.854;8.830;2023-10-08T14:18:43;31.10;99.90
2030;DHT22;1020;48.854;8.830;2023-10-08T14:21:16;30.90;99.90
2030;DHT22;1020;48.854;8.830;2023-10-08T14:23:44;30.70;99.90
2030;DHT22;1020;48.854;8.830;2023-10-08T14:26:12;30.50;99.90
2030;DHT22;1020;48.854;8.830;2023-10-08T14:28:40;30.00;99.90
2030;DHT22;1020;48.854;8.830;2023-10-08T14:31:10;29.80;99.90
2030;DHT22;1020;48.854;8.830;2023-10-08T14:33:42;29.10;99.90
2030;DHT22;1020;48.854;8.830;2023-10-08T14:36:22;29.00;99.90
2030;DHT22;1020;48.854;8.830;2023-10-08T14:39:06;28.90;99.90
2030;DHT22;1020;48.854;8.830;2023-10-08T14:41:50;28.90;99.90
2030;DHT22;1020;48.854;8.830;2023-10-08T14:44:35;29.00;99.90
2030;DHT22;1020;48.854;8.830;2023-10-08T14:47:02;29.40;99.90
2030;DHT22;1020;48.854;8.830;2023-10-08T14:49:31;29.70;99.90
2030;DHT22;1020;48.854;8.830;2023-10-08T14:51:59;30.10;99.90
2030;DHT22;1020;48.854;8.830;2023-10-08T14:54:25;30.10;99.90
2030;DHT22;1020;48.854;8.830;2023-10-08T14:56:53;30.30;99.90
2030;DHT22;1020;48.854;8.830;2023-10-08T14:59:23;30.20;99.90
2030;DHT22;1020;48.854;8.830;2023-10-08T15:01:53;30.10;99.90
2030;DHT22;1020;48.854;8.830;2023-10-08T15:04:20;29.40;99.90
2030;DHT22;1020;48.854;8.830;2023-10-08T15:06:48;29.00;99.90
2030;DHT22;1020;48.854;8.830;2023-10-08T15:09:15;28.90;99.90
2030;DHT22;1020;48.854;8.830;2023-10-08T15:11:49;29.00;99.90
2030;DHT22;1020;48.854;8.830;2023-10-08T15:14:16;28.80;99.90
2030;DHT22;1020;48.854;8.830;2023-10-08T15:16:44;28.70;99.90
2030;DHT22;1020;48.854;8.830;2023-10-08T15:19:12;28.90;99.90
2030;DHT22;1020;48.854;8.830;2023-10-08T15:21:41;29.00;99.90
2030;DHT22;1020;48.854;8.830;2023-10-08T15:24:10;29.20;99.90
2030;DHT22;1020;48.854;8.830;2023-10-08T15:26:37;29.40;99.90
2030;DHT22;1020;48.854;8.830;2023-10-08T15:29:04;29.60;99.90
2030;DHT22;1020;48.854;8.830;2023-10-08T15:31:31;29.60;99.90
2030;DHT22;1020;48.854;8.830;2023-10-08T15:33:58;29.80;99.90
2030;DHT22;1020;48.854;8.830;2023-10-08T15:36:25;29.20;99.90
2030;DHT22;1020;48.854;8.830;2023-10-08T15:38:52;28.80;99.90
2030;DHT22;1020;48.854;8.830;2023-10-08T15:41:20;28.50;99.90
2030;DHT22;1020;48.854;8.830;2023-10-08T15:43:50;27.90;99.90
2030;DHT22;1020;48.854;8.830;2023-10-08T15:46:19;28.10;99.90
2030;DHT22;1020;48.854;8.830;2023-10-08T15:48:46;28.00;99.90
2030;DHT22;1020;48.854;8.830;2023-10-08T15:51:13;28.00;99.90
2030;DHT22;1020;48.854;8.830;2023-10-08T15:53:39;27.90;99.90
2030;DHT22;1020;48.854;8.830;2023-10-08T15:56:06;27.40;99.90
2030;DHT22;1020;48.854;8.830;2023-10-08T15:58:34;27.30;99.90
2030;DHT22;1020;48.854;8.830;2023-10-08T16:01:01;27.10;99.90
2030;DHT22;1020;48.854;8.830;2023-10-08T16:03:28;26.90;99.90
2030;DHT22;1020;48.854;8.830;2023-10-08T16:05:55;26.70;99.90
2030;DHT22;1020;48.854;8.830;2023-10-08T16:08:21;26.20;99.90
2030;DHT22;1020;48.854;8.830;2023-10-08T16:10:48;25.90;99.90
2030;DHT22;1020;48.854;8.830;2023-10-08T16:13:15;25.70;99.90
2030;DHT22;1020;48.854;8.830;2023-10-08T16:15:43;25.40;99.90
2030;DHT22;1020;48.854;8.830;2023-10-08T16:18:10;25.30;99.90
2030;DHT22;1020;48.854;8.830;2023-10-08T16:20:37;25.20;99.90
2030;DHT22;1020;48.854;8.830;2023-10-08T16:23:05;25.10;99.90
2030;DHT22;1020;48.854;8.830;2023-10-08T16:25:32;25.10;99.90
2030;DHT22;1020;48.854;8.830;2023-10-08T16:28:01;26.50;99.90